Time;durP1;ratioP1;P1;durP2;ratioP2;P2;SDS_P1;SDS_P2;PMS_P1;PMS_P2;Temp;Humidity;BMP_temperature;BMP_pressure;BME280_temperature;BME280_humidity;BME280_pressure;Samples;Min_cycle;Max_cycle;Signal;HPM_P1;HPM_P2
2022/04/10 00:00:05;;;;;;;8.57;3.83;;;;;;;;;;511855;28;1431;-86
2022/04/10 00:00:22;;;;;;;8.70;3.75;;;;;;;;;;511688;28;1414;-83
2022/04/10 00:00:37;;;;;;;7.72;3.55;;;;;;;;;;511239;28;1489;-87
2022/04/10 00:00:54;;;;;;;7.45;3.38;;;;;;;;;;513686;28;1428;-87
2022/04/10 00:01:09;;;;;;;6.32;3.25;;;;;;;;;;513623;28;1666;-85
2022/04/10 00:01:25;;;;;;;5.77;3.30;;;;;;;;;;515132;28;1588;-86
2022/04/10 00:01:41;;;;;;;5.70;3.20;;;;;;;;;;515724;28;1456;-82
2022/04/10 00:01:56;;;;;;;5.53;3.25;;;;;;;;;;515262;28;1653;-87
2022/04/10 00:02:12;;;;;;;5.90;3.57;;;;;;;;;;515682;28;1663;-85
2022/04/10 00:02:27;;;;;;;6.88;3.53;;;;;;;;;;512738;28;1516;-86
2022/04/10 00:02:44;;;;;;;7.00;3.30;;;;;;;;;;512884;28;1445;-87
2022/04/10 00:02:59;;;;;;;5.82;3.20;;;;;;;;;;511830;28;1725;-86
2022/04/10 00:03:14;;;;;;;6.00;3.13;;;;;;;;;;512292;28;1434;-88
2022/04/10 00:03:30;;;;;;;5.90;3.05;;;;;;;;;;513286;28;1572;-87
2022/04/10 00:03:45;;;;;;;5.87;3.03;;;;;;;;;;513348;28;1464;-86
2022/04/10 00:04:01;;;;;;;4.80;2.95;;;;;;;;;;512928;28;1790;-86
2022/04/10 00:04:16;;;;;;;3.93;2.67;;;;;;;;;;515296;28;1425;-83
2022/04/10 00:04:31;;;;;;;4.75;2.88;;;;;;;;;;514700;28;2109;-87
2022/04/10 00:04:47;;;;;;;5.20;2.90;;;;;;;;;;515068;28;1430;-87
2022/04/10 00:05:03;;;;;;;5.63;2.80;;;;;;;;;;515247;28;1623;-87
2022/04/10 00:05:18;;;;;;;5.57;2.80;;;;;;;;;;515221;28;1813;-86
2022/04/10 00:05:34;;;;;;;3.97;2.75;;;;;;;;;;513998;28;1445;-83
2022/04/10 00:05:50;;;;;;;4.20;2.80;;;;;;;;;;515317;28;1444;-87
2022/04/10 00:06:06;;;;;;;5.15;2.88;;;;;;;;;;515488;28;1417;-87
2022/04/10 00:06:21;;;;;;;6.00;2.80;;;;;;;;;;514558;28;1525;-85
2022/04/10 00:06:37;;;;;;;5.38;2.70;;;;;;;;;;513777;28;1578;-86
2022/04/10 00:06:53;;;;;;;5.38;3.03;;;;;;;;;;511929;28;1592;-86
2022/04/10 00:07:08;;;;;;;5.67;3.13;;;;;;;;;;513243;28;1489;-87
2022/04/10 00:07:23;;;;;;;5.10;3.00;;;;;;;;;;512992;28;1694;-86
2022/04/10 00:07:39;;;;;;;6.10;3.20;;;;;;;;;;513716;28;1473;-86
2022/04/10 00:07:55;;;;;;;6.28;3.20;;;;;;;;;;513284;28;1543;-86
2022/04/10 00:08:10;;;;;;;5.83;3.00;;;;;;;;;;514468;28;1373;-87
2022/04/10 00:08:26;;;;;;;5.37;3.07;;;;;;;;;;513174;28;1654;-87
2022/04/10 00:08:41;;;;;;;4.60;3.00;;;;;;;;;;514995;28;1851;-86
2022/04/10 00:08:57;;;;;;;4.45;2.90;;;;;;;;;;514748;28;1475;-86
2022/04/10 00:09:13;;;;;;;4.32;2.90;;;;;;;;;;515337;28;1385;-87
2022/04/10 00:09:29;;;;;;;5.22;2.88;;;;;;;;;;517112;28;1471;-87
2022/04/10 00:09:44;;;;;;;6.30;2.97;;;;;;;;;;514464;28;1617;-86
2022/04/10 00:09:59;;;;;;;5.27;2.90;;;;;;;;;;515059;28;1763;-87
2022/04/10 00:10:15;;;;;;;5.20;2.90;;;;;;;;;;513416;28;1397;-86
2022/04/10 00:10:30;;;;;;;5.90;3.03;;;;;;;;;;513134;28;1716;-85
2022/04/10 00:10:46;;;;;;;5.57;3.00;;;;;;;;;;514268;28;1387;-86
2022/04/10 00:11:01;;;;;;;5.15;2.83;;;;;;;;;;513006;28;1678;-87
2022/04/10 00:11:17;;;;;;;6.63;2.97;;;;;;;;;;512957;28;1485;-85
2022/04/10 00:11:32;;;;;;;6.68;3.08;;;;;;;;;;514874;28;1670;-88
2022/04/10 00:11:48;;;;;;;5.80;3.00;;;;;;;;;;517036;28;1518;-85
2022/04/10 00:12:03;;;;;;;4.75;2.88;;;;;;;;;;517866;28;1988;-87
2022/04/10 00:12:19;;;;;;;4.90;2.90;;;;;;;;;;517496;28;1388;-85
2022/04/10 00:12:35;;;;;;;5.53;2.80;;;;;;;;;;514878;28;1576;-87
2022/04/10 00:12:50;;;;;;;4.97;2.80;;;;;;;;;;513655;28;1665;-84
2022/04/10 00:13:05;;;;;;;4.30;3.00;;;;;;;;;;513718;28;1895;-88
2022/04/10 00:13:21;;;;;;;4.95;3.20;;;;;;;;;;512457;28;1504;-86
2022/04/10 00:13:37;;;;;;;6.00;3.50;;;;;;;;;;509860;28;1450;-86
2022/04/10 00:13:52;;;;;;;7.03;3.50;;;;;;;;;;509470;28;1969;-86
2022/04/10 00:14:08;;;;;;;6.68;3.30;;;;;;;;;;511160;28;1662;-86
2022/04/10 00:14:23;;;;;;;5.20;3.17;;;;;;;;;;515067;28;1590;-85
2022/04/10 00:14:38;;;;;;;4.77;3.00;;;;;;;;;;516403;28;1425;-85
2022/04/10 00:14:54;;;;;;;5.05;3.00;;;;;;;;;;515591;28;1694;-86
2022/04/10 00:15:11;;;;;;;4.77;3.00;;;;;;;;;;514005;28;1429;-87
2022/04/10 00:15:26;;;;;;;5.13;3.03;;;;;;;;;;515741;28;1554;-84
2022/04/10 00:15:41;;;;;;;6.80;3.10;;;;;;;;;;515824;28;1437;-87
2022/04/10 00:15:57;;;;;;;6.63;3.00;;;;;;;;;;516033;28;1602;-85
2022/04/10 00:16:13;;;;;;;4.80;2.90;;;;;;;;;;515661;28;1396;-86
2022/04/10 00:16:28;;;;;;;5.05;2.90;;;;;;;;;;515396;28;1445;-87
2022/04/10 00:16:44;;;;;;;6.50;3.00;;;;;;;;;;513552;28;1514;-86
2022/04/10 00:16:59;;;;;;;6.10;3.10;;;;;;;;;;515158;28;1612;-85
2022/04/10 00:17:14;;;;;;;5.80;3.07;;;;;;;;;;518249;28;1427;-87
2022/04/10 00:17:30;;;;;;;6.72;3.00;;;;;;;;;;515298;28;1595;-87
2022/04/10 00:17:45;;;;;;;5.63;2.80;;;;;;;;;;513477;28;1479;-87
2022/04/10 00:18:00;;;;;;;4.63;2.70;;;;;;;;;;514614;28;1428;-83
2022/04/10 00:18:16;;;;;;;4.45;2.70;;;;;;;;;;513481;28;1397;-85
2022/04/10 00:18:31;;;;;;;4.37;2.80;;;;;;;;;;516096;28;1563;-86
2022/04/10 00:18:47;;;;;;;5.28;2.85;;;;;;;;;;515752;28;1451;-88
2022/04/10 00:19:04;;;;;;;6.10;2.80;;;;;;;;;;516598;28;1665;-86
2022/04/10 00:19:19;;;;;;;6.30;2.80;;;;;;;;;;515418;28;1500;-86
2022/04/10 00:19:35;;;;;;;5.47;2.83;;;;;;;;;;517680;28;1657;-87
2022/04/10 00:19:50;;;;;;;5.63;2.90;;;;;;;;;;518353;28;1569;-84
2022/04/10 00:20:06;;;;;;;5.53;2.90;;;;;;;;;;516535;28;1461;-88
2022/04/10 00:20:21;;;;;;;5.87;3.03;;;;;;;;;;515940;28;1429;-86
2022/04/10 00:20:36;;;;;;;5.35;2.97;;;;;;;;;;515842;28;1699;-87
2022/04/10 00:20:52;;;;;;;4.43;2.77;;;;;;;;;;513800;28;1445;-87
2022/04/10 00:21:07;;;;;;;4.80;2.83;;;;;;;;;;515083;28;1605;-86
2022/04/10 00:21:23;;;;;;;5.03;2.90;;;;;;;;;;515160;28;1436;-87
2022/04/10 00:21:38;;;;;;;5.32;2.90;;;;;;;;;;515324;28;1507;-87
2022/04/10 00:21:54;;;;;;;5.47;2.90;;;;;;;;;;511073;28;1390;-86
2022/04/10 00:22:09;;;;;;;5.00;2.90;;;;;;;;;;511155;28;1640;-87
2022/04/10 00:22:27;;;;;;;4.88;2.95;;;;;;;;;;511956;28;1362;-88
2022/04/10 00:22:44;;;;;;;4.63;2.90;;;;;;;;;;511454;28;1417;-87
2022/04/10 00:22:59;;;;;;;4.50;2.70;;;;;;;;;;513716;28;1429;-86
2022/04/10 00:23:15;;;;;;;4.73;2.77;;;;;;;;;;517252;28;1579;-87
2022/04/10 00:23:31;;;;;;;4.60;3.03;;;;;;;;;;517455;28;1452;-87
2022/04/10 00:23:46;;;;;;;4.35;3.10;;;;;;;;;;516293;28;1626;-87
2022/04/10 00:24:02;;;;;;;4.27;2.90;;;;;;;;;;513008;28;1564;-86
2022/04/10 00:24:17;;;;;;;4.57;2.90;;;;;;;;;;511488;28;1531;-87
2022/04/10 00:24:33;;;;;;;4.60;2.90;;;;;;;;;;509621;29;1370;-87
2022/04/10 00:24:48;;;;;;;5.32;2.92;;;;;;;;;;508912;28;1668;-87
2022/04/10 00:25:04;;;;;;;5.77;3.10;;;;;;;;;;514618;28;1528;-87
2022/04/10 00:25:21;;;;;;;5.57;3.25;;;;;;;;;;513159;28;1583;-85
2022/04/10 00:25:36;;;;;;;5.10;3.03;;;;;;;;;;513031;28;1623;-87
2022/04/10 00:25:51;;;;;;;4.13;2.90;;;;;;;;;;513084;28;1460;-84
2022/04/10 00:26:07;;;;;;;4.20;2.90;;;;;;;;;;513543;28;1445;-85
2022/04/10 00:26:22;;;;;;;4.53;2.95;;;;;;;;;;512307;28;1723;-86
2022/04/10 00:26:37;;;;;;;5.33;3.20;;;;;;;;;;509537;29;1549;-85
2022/04/10 00:26:53;;;;;;;5.50;3.27;;;;;;;;;;507869;29;1804;-87
2022/04/10 00:27:12;;;;;;;5.55;3.08;;;;;;;;;;509433;29;1612;-85
2022/04/10 00:27:27;;;;;;;6.45;3.05;;;;;;;;;;513310;28;1500;-87
2022/04/10 00:27:43;;;;;;;4.93;2.90;;;;;;;;;;513743;28;1561;-87
2022/04/10 00:27:58;;;;;;;4.13;2.85;;;;;;;;;;513089;28;1463;-84
2022/04/10 00:28:14;;;;;;;4.75;3.00;;;;;;;;;;511658;28;1791;-87
2022/04/10 00:28:29;;;;;;;5.57;3.13;;;;;;;;;;512973;28;1555;-87
2022/04/10 00:28:45;;;;;;;6.37;3.10;;;;;;;;;;513361;28;1774;-86
2022/04/10 00:29:00;;;;;;;6.67;3.07;;;;;;;;;;516287;28;1472;-87
2022/04/10 00:29:15;;;;;;;5.80;3.13;;;;;;;;;;513377;28;1518;-86
2022/04/10 00:29:31;;;;;;;5.57;3.20;;;;;;;;;;515201;28;1432;-86
2022/04/10 00:29:47;;;;;;;6.00;3.00;;;;;;;;;;512948;28;1418;-88
2022/04/10 00:30:02;;;;;;;5.85;3.13;;;;;;;;;;510899;28;1658;-86
2022/04/10 00:30:18;;;;;;;5.10;3.30;;;;;;;;;;514250;28;1462;-86
2022/04/10 00:30:33;;;;;;;4.20;3.13;;;;;;;;;;511247;28;1414;-85
2022/04/10 00:30:49;;;;;;;3.97;3.00;;;;;;;;;;513161;28;1492;-87
2022/04/10 00:31:04;;;;;;;4.70;2.90;;;;;;;;;;515177;28;1610;-86
2022/04/10 00:31:19;;;;;;;5.20;2.90;;;;;;;;;;515359;28;1432;-86
2022/04/10 00:31:35;;;;;;;5.57;3.38;;;;;;;;;;514471;28;1558;-85
2022/04/10 00:31:51;;;;;;;5.30;3.57;;;;;;;;;;511664;28;1390;-86
2022/04/10 00:32:07;;;;;;;5.38;3.35;;;;;;;;;;510519;28;1461;-87
2022/04/10 00:32:28;;;;;;;5.30;3.33;;;;;;;;;;511430;28;1434;-87
2022/04/10 00:32:44;;;;;;;5.35;3.30;;;;;;;;;;511243;28;1569;-83
2022/04/10 00:33:00;;;;;;;6.10;3.28;;;;;;;;;;513635;28;1474;-87
2022/04/10 00:33:16;;;;;;;6.07;3.10;;;;;;;;;;513405;28;1591;-88
2022/04/10 00:33:31;;;;;;;5.75;3.22;;;;;;;;;;513498;28;1693;-86
2022/04/10 00:33:47;;;;;;;5.73;3.40;;;;;;;;;;513138;28;1398;-87
2022/04/10 00:34:02;;;;;;;5.20;3.37;;;;;;;;;;514021;28;1950;-82
2022/04/10 00:34:18;;;;;;;4.30;3.08;;;;;;;;;;511002;28;1514;-88
2022/04/10 00:34:33;;;;;;;3.83;3.10;;;;;;;;;;511391;28;1501;-85
2022/04/10 00:34:48;;;;;;;4.03;3.10;;;;;;;;;;515296;28;1536;-87
2022/04/10 00:35:07;;;;;;;4.73;3.07;;;;;;;;;;515498;28;1590;-87
2022/04/10 00:35:23;;;;;;;5.47;3.10;;;;;;;;;;515984;28;1439;-87
2022/04/10 00:35:38;;;;;;;5.57;3.10;;;;;;;;;;516400;28;1600;-84
2022/04/10 00:35:53;;;;;;;5.32;3.20;;;;;;;;;;517150;28;1465;-86
2022/04/10 00:36:09;;;;;;;4.77;3.10;;;;;;;;;;517150;28;1620;-88
2022/04/10 00:36:25;;;;;;;4.83;3.00;;;;;;;;;;515226;28;1488;-86
2022/04/10 00:36:40;;;;;;;4.80;3.10;;;;;;;;;;515212;28;1460;-86
2022/04/10 00:36:55;;;;;;;4.70;3.22;;;;;;;;;;511207;28;1447;-84
2022/04/10 00:37:11;;;;;;;4.70;3.10;;;;;;;;;;512756;28;1437;-87
2022/04/10 00:37:26;;;;;;;5.20;3.23;;;;;;;;;;513593;28;1441;-87
2022/04/10 00:37:42;;;;;;;4.97;3.25;;;;;;;;;;513140;28;1684;-87
2022/04/10 00:37:57;;;;;;;4.77;3.00;;;;;;;;;;513837;28;1457;-85
2022/04/10 00:38:12;;;;;;;4.88;2.92;;;;;;;;;;513474;28;1568;-87
2022/04/10 00:38:28;;;;;;;5.57;3.30;;;;;;;;;;515514;28;1437;-86
2022/04/10 00:38:43;;;;;;;5.72;3.30;;;;;;;;;;515452;28;1592;-87
2022/04/10 00:38:58;;;;;;;5.00;3.30;;;;;;;;;;517382;28;1457;-86
2022/04/10 00:39:14;;;;;;;4.83;3.40;;;;;;;;;;514123;28;1440;-87
2022/04/10 00:39:29;;;;;;;5.15;3.35;;;;;;;;;;513501;28;1524;-84
2022/04/10 00:39:45;;;;;;;4.90;3.30;;;;;;;;;;513104;28;1505;-87
2022/04/10 00:40:01;;;;;;;5.15;3.17;;;;;;;;;;511429;28;1546;-84
2022/04/10 00:40:16;;;;;;;5.72;3.10;;;;;;;;;;511253;28;1490;-88
2022/04/10 00:40:32;;;;;;;4.80;3.07;;;;;;;;;;510419;28;1407;-85
2022/04/10 00:40:48;;;;;;;4.28;3.00;;;;;;;;;;511683;28;1585;-87
2022/04/10 00:41:03;;;;;;;5.93;3.25;;;;;;;;;;512266;28;1450;-87
2022/04/10 00:41:18;;;;;;;6.13;3.30;;;;;;;;;;513420;28;1658;-87
2022/04/10 00:41:34;;;;;;;4.97;3.17;;;;;;;;;;513833;28;1557;-85
2022/04/10 00:41:49;;;;;;;4.93;3.20;;;;;;;;;;516504;28;1503;-88
2022/04/10 00:42:05;;;;;;;5.03;3.20;;;;;;;;;;517378;28;1552;-86
2022/04/10 00:42:21;;;;;;;5.90;3.28;;;;;;;;;;515887;28;1506;-85
2022/04/10 00:42:38;;;;;;;6.25;3.30;;;;;;;;;;515287;28;1367;-88
2022/04/10 00:42:54;;;;;;;5.03;3.17;;;;;;;;;;515215;28;1511;-88
2022/04/10 00:43:09;;;;;;;5.33;3.30;;;;;;;;;;514074;28;1395;-87
2022/04/10 00:43:32;;;;;;;5.50;3.33;;;;;;;;;;513241;28;1440;-88
2022/04/10 00:44:10;;;;;;;5.70;3.33;;;;;;;;;;515636;28;1417;-87
2022/04/10 00:44:26;;;;;;;5.55;3.20;;;;;;;;;;517687;28;1375;-86
2022/04/10 00:44:41;;;;;;;4.57;3.30;;;;;;;;;;517102;28;1454;-86
2022/04/10 00:44:57;;;;;;;5.25;3.50;;;;;;;;;;515161;28;1370;-86
2022/04/10 00:45:12;;;;;;;6.83;3.70;;;;;;;;;;515054;28;1590;-88
2022/04/10 00:45:28;;;;;;;5.70;3.35;;;;;;;;;;515399;28;1498;-87
2022/04/10 00:45:43;;;;;;;5.50;3.23;;;;;;;;;;513642;28;1623;-88
2022/04/10 00:46:00;;;;;;;6.17;3.50;;;;;;;;;;511024;28;1494;-88
2022/04/10 00:46:15;;;;;;;5.10;3.42;;;;;;;;;;511497;28;1513;-85
2022/04/10 00:46:31;;;;;;;5.50;3.20;;;;;;;;;;511524;28;1607;-87
2022/04/10 00:46:49;;;;;;;5.60;3.27;;;;;;;;;;513390;28;1532;-86
2022/04/10 00:47:05;;;;;;;5.35;3.30;;;;;;;;;;513178;28;1723;-88
2022/04/10 00:47:21;;;;;;;5.43;3.50;;;;;;;;;;511530;28;1525;-86
2022/04/10 00:47:36;;;;;;;5.23;3.30;;;;;;;;;;514431;28;1562;-87
2022/04/10 00:47:51;;;;;;;5.03;3.10;;;;;;;;;;515431;28;1637;-85
2022/04/10 00:48:06;;;;;;;4.65;3.05;;;;;;;;;;515179;28;1467;-86
2022/04/10 00:48:22;;;;;;;4.70;3.17;;;;;;;;;;513102;28;1561;-86
2022/04/10 00:48:37;;;;;;;5.82;3.30;;;;;;;;;;513197;28;1669;-88
2022/04/10 00:48:53;;;;;;;6.07;3.10;;;;;;;;;;511587;28;1421;-87
2022/04/10 00:49:08;;;;;;;5.03;3.10;;;;;;;;;;513098;28;1472;-87
2022/04/10 00:49:24;;;;;;;5.10;3.30;;;;;;;;;;512924;28;1520;-85
2022/04/10 00:49:40;;;;;;;5.83;3.40;;;;;;;;;;513968;28;1401;-87
2022/04/10 00:50:00;;;;;;;6.60;3.42;;;;;;;;;;511039;28;1407;-85
2022/04/10 00:50:17;;;;;;;6.28;3.30;;;;;;;;;;510316;28;1751;-84
2022/04/10 00:50:33;;;;;;;6.97;3.22;;;;;;;;;;510194;28;2367;-88
2022/04/10 00:51:41;;;;;;;5.25;3.30;;;;;;;;;;512954;28;1414;-87
2022/04/10 00:51:56;;;;;;;6.05;3.50;;;;;;;;;;517224;28;1454;-85
2022/04/10 00:52:12;;;;;;;4.97;3.30;;;;;;;;;;516961;28;1594;-86
2022/04/10 00:52:29;;;;;;;5.85;3.10;;;;;;;;;;517393;28;1447;-86
2022/04/10 00:52:47;;;;;;;6.50;3.10;;;;;;;;;;516987;28;1490;-85
2022/04/10 00:53:02;;;;;;;5.32;3.30;;;;;;;;;;517387;28;1640;-86
2022/04/10 00:53:17;;;;;;;5.03;3.30;;;;;;;;;;516999;28;1502;-85
2022/04/10 00:53:34;;;;;;;5.17;3.20;;;;;;;;;;515558;28;1609;-87
2022/04/10 00:53:49;;;;;;;5.47;3.10;;;;;;;;;;515151;28;1902;-86
2022/04/10 00:54:05;;;;;;;4.93;3.20;;;;;;;;;;515338;28;1463;-86
2022/04/10 00:54:25;;;;;;;4.88;3.22;;;;;;;;;;513194;28;1773;-85
2022/04/10 00:54:40;;;;;;;4.88;3.28;;;;;;;;;;512882;28;1658;-87
2022/04/10 00:54:57;;;;;;;5.33;3.20;;;;;;;;;;514216;28;1409;-87
2022/04/10 00:55:13;;;;;;;6.15;3.20;;;;;;;;;;515212;28;1634;-86
2022/04/10 00:55:29;;;;;;;5.60;3.20;;;;;;;;;;514771;28;1529;-87
2022/04/10 00:55:45;;;;;;;5.72;3.40;;;;;;;;;;515076;28;1801;-87
2022/04/10 00:56:00;;;;;;;7.07;3.60;;;;;;;;;;515081;28;1622;-84
2022/04/10 00:56:16;;;;;;;6.10;3.30;;;;;;;;;;515599;28;1575;-86
2022/04/10 00:56:31;;;;;;;5.00;3.17;;;;;;;;;;513158;28;1568;-86
2022/04/10 00:56:48;;;;;;;5.45;3.30;;;;;;;;;;513204;28;1775;-87
2022/04/10 00:57:04;;;;;;;5.70;3.30;;;;;;;;;;512969;28;1497;-87
2022/04/10 00:57:20;;;;;;;5.30;3.30;;;;;;;;;;511637;28;1430;-82
2022/04/10 00:57:36;;;;;;;5.18;3.30;;;;;;;;;;513262;28;1436;-87
2022/04/10 00:57:52;;;;;;;6.25;3.30;;;;;;;;;;510475;28;1673;-87
2022/04/10 00:58:07;;;;;;;6.50;3.40;;;;;;;;;;510605;28;1540;-85
2022/04/10 00:58:23;;;;;;;6.67;3.47;;;;;;;;;;509564;28;1762;-86
2022/04/10 00:58:39;;;;;;;6.40;3.60;;;;;;;;;;506147;29;1361;-87
2022/04/10 00:58:55;;;;;;;5.23;3.53;;;;;;;;;;506651;29;1534;-86
2022/04/10 00:59:11;;;;;;;4.60;3.40;;;;;;;;;;511725;28;1518;-88
2022/04/10 00:59:30;;;;;;;5.07;3.17;;;;;;;;;;512112;28;1378;-84
2022/04/10 00:59:46;;;;;;;5.50;3.28;;;;;;;;;;513397;28;1519;-86
2022/04/10 01:00:04;;;;;;;7.40;3.47;;;;;;;;;;509927;28;1529;-84
2022/04/10 01:00:19;;;;;;;7.03;3.55;;;;;;;;;;509237;28;1488;-87
2022/04/10 01:00:35;;;;;;;5.80;3.45;;;;;;;;;;511195;28;1658;-85
2022/04/10 01:00:50;;;;;;;5.80;3.40;;;;;;;;;;508760;28;1516;-85
2022/04/10 01:01:05;;;;;;;6.53;3.50;;;;;;;;;;513031;28;1555;-85
2022/04/10 01:01:21;;;;;;;7.30;3.63;;;;;;;;;;511628;28;1647;-87
2022/04/10 01:01:37;;;;;;;6.53;3.40;;;;;;;;;;512918;28;1464;-86
2022/04/10 01:01:52;;;;;;;5.22;3.20;;;;;;;;;;513053;28;1515;-85
2022/04/10 01:02:09;;;;;;;5.63;3.58;;;;;;;;;;513623;28;1557;-85
2022/04/10 01:02:24;;;;;;;6.07;3.60;;;;;;;;;;509849;28;1564;-87
2022/04/10 01:02:39;;;;;;;5.75;3.47;;;;;;;;;;512478;28;1532;-85
2022/04/10 01:02:55;;;;;;;5.43;3.57;;;;;;;;;;509932;28;1528;-85
2022/04/10 01:03:10;;;;;;;5.93;3.60;;;;;;;;;;511288;28;1445;-87
2022/04/10 01:03:25;;;;;;;6.38;3.55;;;;;;;;;;513313;28;1488;-87
2022/04/10 01:03:41;;;;;;;6.27;3.50;;;;;;;;;;513352;28;1453;-84
2022/04/10 01:03:56;;;;;;;6.38;3.40;;;;;;;;;;513771;28;1479;-86
2022/04/10 01:04:16;;;;;;;6.33;3.30;;;;;;;;;;513247;28;1411;-86
2022/04/10 01:04:31;;;;;;;6.13;3.55;;;;;;;;;;513723;28;1499;-87
2022/04/10 01:04:47;;;;;;;6.03;3.55;;;;;;;;;;513358;28;1484;-87
2022/04/10 01:05:04;;;;;;;6.88;3.60;;;;;;;;;;511853;28;1957;-85
2022/04/10 01:05:19;;;;;;;5.60;3.30;;;;;;;;;;509865;28;1478;-87
2022/04/10 01:05:35;;;;;;;5.70;3.23;;;;;;;;;;509849;28;1702;-86
2022/04/10 01:05:50;;;;;;;5.38;3.25;;;;;;;;;;513365;28;1536;-88
2022/04/10 01:06:06;;;;;;;5.37;3.27;;;;;;;;;;514243;28;1544;-86
2022/04/10 01:06:22;;;;;;;5.50;3.30;;;;;;;;;;513391;28;1615;-86
2022/04/10 01:06:37;;;;;;;6.30;3.40;;;;;;;;;;513563;28;1653;-87
2022/04/10 01:06:55;;;;;;;6.77;3.40;;;;;;;;;;509416;28;1489;-88
2022/04/10 01:07:13;;;;;;;7.78;3.33;;;;;;;;;;513144;28;1500;-87
2022/04/10 01:07:29;;;;;;;7.50;3.40;;;;;;;;;;510571;28;1375;-88
2022/04/10 01:07:44;;;;;;;5.93;3.30;;;;;;;;;;507722;28;1502;-85
2022/04/10 01:07:59;;;;;;;5.20;3.27;;;;;;;;;;511611;28;1427;-87
2022/04/10 01:08:15;;;;;;;4.97;3.33;;;;;;;;;;511233;28;1587;-87
2022/04/10 01:08:33;;;;;;;5.20;3.30;;;;;;;;;;511566;28;1461;-86
2022/04/10 01:08:48;;;;;;;5.60;3.35;;;;;;;;;;513254;28;1505;-86
2022/04/10 01:09:04;;;;;;;5.30;3.43;;;;;;;;;;514113;28;1441;-87
2022/04/10 01:09:20;;;;;;;5.57;3.50;;;;;;;;;;513686;28;1433;-86
2022/04/10 01:09:36;;;;;;;6.73;3.40;;;;;;;;;;511605;28;1556;-85
2022/04/10 01:09:51;;;;;;;5.93;3.22;;;;;;;;;;509277;28;1486;-87
2022/04/10 01:10:07;;;;;;;6.17;3.50;;;;;;;;;;508060;28;1377;-85
2022/04/10 01:10:22;;;;;;;6.22;3.70;;;;;;;;;;511563;28;1451;-85
2022/04/10 01:10:38;;;;;;;5.40;3.60;;;;;;;;;;509042;29;1586;-87
2022/04/10 01:10:54;;;;;;;6.77;3.60;;;;;;;;;;509631;29;1466;-86
2022/04/10 01:11:09;;;;;;;7.32;3.45;;;;;;;;;;510705;28;1552;-87
2022/04/10 01:11:25;;;;;;;6.47;3.40;;;;;;;;;;511021;28;1711;-85
2022/04/10 01:11:40;;;;;;;5.68;3.40;;;;;;;;;;509353;28;1507;-88
2022/04/10 01:11:55;;;;;;;5.77;3.37;;;;;;;;;;508978;29;1464;-86
2022/04/10 01:12:11;;;;;;;6.30;3.33;;;;;;;;;;509295;28;1554;-87
2022/04/10 01:12:27;;;;;;;6.87;3.47;;;;;;;;;;509628;29;1415;-87
2022/04/10 01:12:42;;;;;;;7.60;3.65;;;;;;;;;;508975;29;1757;-84
2022/04/10 01:12:58;;;;;;;7.10;3.50;;;;;;;;;;508470;29;1455;-86
2022/04/10 01:13:15;;;;;;;6.05;3.45;;;;;;;;;;508094;29;1741;-87
2022/04/10 01:13:30;;;;;;;5.32;3.40;;;;;;;;;;508952;29;1516;-86
2022/04/10 01:13:46;;;;;;;6.25;3.40;;;;;;;;;;509450;29;1435;-85
2022/04/10 01:14:04;;;;;;;6.57;3.50;;;;;;;;;;511638;28;2045;-86
2022/04/10 01:14:20;;;;;;;6.32;3.60;;;;;;;;;;514680;28;1541;-84
2022/04/10 01:14:40;;;;;;;6.05;3.40;;;;;;;;;;515580;28;1519;-87
2022/04/10 01:14:55;;;;;;;5.32;3.40;;;;;;;;;;515616;28;1451;-86
2022/04/10 01:15:11;;;;;;;5.68;3.45;;;;;;;;;;515142;28;1715;-87
2022/04/10 01:15:26;;;;;;;5.43;3.50;;;;;;;;;;515353;28;1441;-83
2022/04/10 01:15:41;;;;;;;6.10;3.80;;;;;;;;;;512191;28;1566;-85
2022/04/10 01:15:57;;;;;;;6.60;3.93;;;;;;;;;;509231;28;1954;-87
2022/04/10 01:16:13;;;;;;;5.60;3.70;;;;;;;;;;508967;28;1732;-87
2022/04/10 01:16:30;;;;;;;5.72;3.47;;;;;;;;;;511347;28;1614;-88
2022/04/10 01:16:49;;;;;;;6.20;3.50;;;;;;;;;;513595;28;1519;-83
2022/04/10 01:17:08;;;;;;;5.90;3.53;;;;;;;;;;509068;28;1501;-87
2022/04/10 01:17:24;;;;;;;5.32;3.10;;;;;;;;;;513382;28;1432;-85
2022/04/10 01:17:39;;;;;;;4.97;3.10;;;;;;;;;;513419;28;1953;-87
2022/04/10 01:17:56;;;;;;;5.90;3.23;;;;;;;;;;510865;28;1831;-86
2022/04/10 01:18:11;;;;;;;7.20;3.47;;;;;;;;;;510265;28;1433;-88
2022/04/10 01:18:27;;;;;;;6.88;3.60;;;;;;;;;;506979;29;1470;-85
2022/04/10 01:18:43;;;;;;;6.40;3.60;;;;;;;;;;509796;28;1499;-87
2022/04/10 01:19:01;;;;;;;6.00;3.50;;;;;;;;;;506846;29;1577;-86
2022/04/10 01:19:17;;;;;;;5.57;3.53;;;;;;;;;;508978;29;1593;-87
2022/04/10 01:19:33;;;;;;;5.70;3.50;;;;;;;;;;507431;29;1483;-85
2022/04/10 01:19:50;;;;;;;5.65;3.40;;;;;;;;;;509300;29;1489;-88
2022/04/10 01:20:07;;;;;;;5.57;3.60;;;;;;;;;;510862;28;1437;-86
2022/04/10 01:20:23;;;;;;;4.97;3.47;;;;;;;;;;513433;28;1496;-84
2022/04/10 01:20:39;;;;;;;5.15;3.40;;;;;;;;;;513643;28;1487;-83
2022/04/10 01:20:55;;;;;;;5.00;3.40;;;;;;;;;;514824;28;1452;-86
2022/04/10 01:21:13;;;;;;;5.40;3.47;;;;;;;;;;513487;28;1525;-87
2022/04/10 01:21:31;;;;;;;6.10;3.60;;;;;;;;;;512928;28;1532;-87
2022/04/10 01:21:49;;;;;;;4.88;3.40;;;;;;;;;;513255;28;1464;-87
2022/04/10 01:22:06;;;;;;;4.32;3.30;;;;;;;;;;513690;28;1567;-88
2022/04/10 01:22:32;;;;;;;4.90;3.38;;;;;;;;;;512112;28;1432;-85
2022/04/10 01:22:48;;;;;;;5.22;3.38;;;;;;;;;;512729;28;1436;-87
2022/04/10 01:23:04;;;;;;;5.40;3.50;;;;;;;;;;513622;28;1390;-87
2022/04/10 01:23:19;;;;;;;4.78;3.33;;;;;;;;;;513661;28;1649;-87
2022/04/10 01:23:35;;;;;;;4.85;3.20;;;;;;;;;;512119;28;1539;-85
2022/04/10 01:23:52;;;;;;;5.07;3.40;;;;;;;;;;510012;28;1658;-87
2022/04/10 01:24:09;;;;;;;5.32;3.60;;;;;;;;;;509907;28;1511;-87
2022/04/10 01:24:25;;;;;;;6.20;3.70;;;;;;;;;;507521;29;1438;-86
2022/04/10 01:24:42;;;;;;;5.85;3.70;;;;;;;;;;507996;28;1470;-88
2022/04/10 01:24:58;;;;;;;6.75;3.72;;;;;;;;;;507331;29;1810;-85
2022/04/10 01:25:14;;;;;;;6.82;3.50;;;;;;;;;;508224;29;1561;-88
2022/04/10 01:25:29;;;;;;;6.03;3.40;;;;;;;;;;510794;28;1524;-88
2022/04/10 01:25:45;;;;;;;5.80;3.50;;;;;;;;;;512159;28;1374;-86
2022/04/10 01:26:00;;;;;;;6.13;3.38;;;;;;;;;;514661;28;1908;-85
2022/04/10 01:26:15;;;;;;;6.43;3.43;;;;;;;;;;515857;28;1454;-84
2022/04/10 01:26:31;;;;;;;5.70;3.60;;;;;;;;;;515296;28;1739;-85
2022/04/10 01:26:47;;;;;;;5.80;3.50;;;;;;;;;;515306;28;1509;-86
2022/04/10 01:27:03;;;;;;;4.93;3.30;;;;;;;;;;515020;28;1682;-87
2022/04/10 01:27:18;;;;;;;4.95;3.35;;;;;;;;;;516254;28;1341;-87
2022/04/10 01:27:37;;;;;;;5.50;3.40;;;;;;;;;;517323;28;1754;-88
2022/04/10 01:27:53;;;;;;;5.80;3.38;;;;;;;;;;515597;28;1558;-86
2022/04/10 01:28:12;;;;;;;6.00;3.50;;;;;;;;;;513184;28;1602;-85
2022/04/10 01:28:27;;;;;;;5.13;3.40;;;;;;;;;;513536;28;1583;-88
2022/04/10 01:29:09;;;;;;;5.15;3.47;;;;;;;;;;515875;28;1444;-86
2022/04/10 01:29:27;;;;;;;6.13;3.17;;;;;;;;;;516578;28;1533;-88
2022/04/10 01:29:43;;;;;;;6.97;3.35;;;;;;;;;;515783;28;1456;-82
2022/04/10 01:30:00;;;;;;;7.23;3.57;;;;;;;;;;515524;28;1464;-88
2022/04/10 01:30:16;;;;;;;6.68;3.55;;;;;;;;;;517398;28;1439;-88
2022/04/10 01:30:31;;;;;;;6.07;3.50;;;;;;;;;;516836;28;1534;-87
2022/04/10 01:30:47;;;;;;;5.82;3.40;;;;;;;;;;514826;28;2177;-87
2022/04/10 01:31:02;;;;;;;5.37;3.33;;;;;;;;;;515850;28;1568;-87
2022/04/10 01:31:17;;;;;;;5.30;3.50;;;;;;;;;;516414;28;1504;-85
2022/04/10 01:31:35;;;;;;;6.50;3.50;;;;;;;;;;514390;28;1818;-85
2022/04/10 01:31:51;;;;;;;6.70;3.50;;;;;;;;;;511992;28;1519;-85
2022/04/10 01:32:06;;;;;;;5.90;3.60;;;;;;;;;;510589;28;1639;-87
2022/04/10 01:32:22;;;;;;;5.78;3.70;;;;;;;;;;509757;28;1503;-86
2022/04/10 01:32:37;;;;;;;6.45;3.70;;;;;;;;;;509428;28;1506;-85
2022/04/10 01:32:53;;;;;;;5.70;3.60;;;;;;;;;;507446;29;1658;-87
2022/04/10 01:33:08;;;;;;;5.05;3.60;;;;;;;;;;507254;29;1394;-85
2022/04/10 01:33:24;;;;;;;6.73;3.60;;;;;;;;;;509169;29;1576;-87
2022/04/10 01:33:39;;;;;;;6.95;3.65;;;;;;;;;;514273;28;1380;-87
2022/04/10 01:34:03;;;;;;;6.63;3.60;;;;;;;;;;513282;28;1915;-86
2022/04/10 01:34:19;;;;;;;5.50;3.40;;;;;;;;;;508698;28;1580;-87
2022/04/10 01:34:37;;;;;;;5.18;3.40;;;;;;;;;;509469;28;1458;-87
2022/04/10 01:34:53;;;;;;;6.50;3.75;;;;;;;;;;509604;29;1791;-83
2022/04/10 01:35:09;;;;;;;5.25;3.60;;;;;;;;;;507340;28;1463;-86
2022/04/10 01:35:25;;;;;;;5.40;3.38;;;;;;;;;;509656;28;1409;-88
2022/04/10 01:35:41;;;;;;;7.00;3.55;;;;;;;;;;509373;29;1997;-87
2022/04/10 01:35:56;;;;;;;6.63;3.33;;;;;;;;;;511239;28;1600;-87
2022/04/10 01:36:12;;;;;;;6.20;3.40;;;;;;;;;;513668;28;1583;-83
2022/04/10 01:36:29;;;;;;;7.13;3.58;;;;;;;;;;515382;28;1550;-87
2022/04/10 01:36:45;;;;;;;6.55;3.50;;;;;;;;;;514496;28;1452;-87
2022/04/10 01:37:01;;;;;;;5.70;3.50;;;;;;;;;;515386;28;1613;-87
2022/04/10 01:37:18;;;;;;;5.70;3.50;;;;;;;;;;514057;28;1463;-84
2022/04/10 01:37:38;;;;;;;5.40;3.40;;;;;;;;;;515974;28;1416;-84
2022/04/10 01:37:54;;;;;;;5.72;3.45;;;;;;;;;;515371;28;1459;-85
2022/04/10 01:38:12;;;;;;;5.70;3.60;;;;;;;;;;513746;28;1616;-86
2022/04/10 01:38:28;;;;;;;6.13;3.60;;;;;;;;;;510979;28;1590;-87
2022/04/10 01:38:44;;;;;;;4.97;3.40;;;;;;;;;;511925;28;1366;-85
2022/04/10 01:39:02;;;;;;;6.10;3.50;;;;;;;;;;511674;28;1492;-88
2022/04/10 01:39:18;;;;;;;6.53;3.30;;;;;;;;;;512307;28;1563;-88
2022/04/10 01:39:34;;;;;;;5.70;3.40;;;;;;;;;;509193;28;1443;-88
2022/04/10 01:39:49;;;;;;;5.43;3.80;;;;;;;;;;508439;28;1573;-84
2022/04/10 01:40:05;;;;;;;5.93;3.75;;;;;;;;;;509859;28;1409;-83
2022/04/10 01:40:21;;;;;;;6.77;3.63;;;;;;;;;;511330;28;1473;-86